Time;durP1;ratioP1;P1;durP2;ratioP2;P2;SDS_P1;SDS_P2;PMS_P1;PMS_P2;Temp;Humidity;BMP_temperature;BMP_pressure;BME280_temperature;BME280_humidity;BME280_pressure;Samples;Min_cycle;Max_cycle;Signal;HPM_P1;HPM_P2
2022/03/12 00:01:15;;;;;;;6.47;2.75;;;6.90;13.70;;;;;;5075886;28;20198;-50
2022/03/12 00:03:41;;;;;;;7.43;2.60;;;6.70;13.50;;;;;;5074014;28;20179;-51
2022/03/12 00:06:09;;;;;;;4.13;3.07;;;6.60;13.30;;;;;;5075293;28;20251;-51
2022/03/12 00:08:46;;;;;;;8.45;2.65;;;6.60;13.40;;;;;;5075133;28;20411;-51
2022/03/12 00:11:14;;;;;;;5.35;2.60;;;6.60;13.50;;;;;;5075209;28;20604;-51
2022/03/12 00:13:41;;;;;;;2.10;1.83;;;6.60;13.50;;;;;;5074832;28;20217;-51
2022/03/12 00:16:13;;;;;;;3.20;1.50;;;6.70;13.60;;;;;;5074962;28;20330;-51
2022/03/12 00:18:40;;;;;;;4.68;3.33;;;6.50;13.50;;;;;;5075315;28;20168;-51
2022/03/12 00:21:07;;;;;;;6.70;2.28;;;6.50;13.70;;;;;;5075222;28;20267;-51
2022/03/12 00:23:33;;;;;;;5.35;2.95;;;6.50;13.50;;;;;;5075148;28;20183;-50
2022/03/12 00:26:00;;;;;;;4.73;2.67;;;6.60;13.60;;;;;;5075393;28;20714;-50
2022/03/12 00:28:27;;;;;;;9.55;2.72;;;6.60;13.70;;;;;;5073516;28;20259;-51
2022/03/12 00:30:53;;;;;;;4.10;2.50;;;6.50;13.50;;;;;;5075007;28;20180;-51
2022/03/12 00:33:20;;;;;;;3.30;2.15;;;6.50;13.70;;;;;;5074692;28;20536;-51
2022/03/12 00:35:52;;;;;;;6.25;2.50;;;6.50;13.70;;;;;;5074784;28;20227;-51
2022/03/12 00:38:21;;;;;;;3.17;2.80;;;6.50;13.90;;;;;;5075166;28;20161;-51
2022/03/12 00:40:47;;;;;;;4.15;2.67;;;6.50;13.70;;;;;;5075043;28;20187;-51
2022/03/12 00:43:15;;;;;;;3.08;2.58;;;6.40;13.60;;;;;;5073248;28;20503;-51
2022/03/12 00:45:42;;;;;;;3.03;2.03;;;6.40;13.70;;;;;;5074547;28;20226;-51
2022/03/12 00:48:08;;;;;;;4.45;2.30;;;6.40;13.60;;;;;;5074379;28;20175;-51
2022/03/12 00:50:34;;;;;;;2.70;2.00;;;6.40;13.50;;;;;;5074353;28;20168;-51
2022/03/12 00:53:01;;;;;;;3.20;2.42;;;6.40;13.40;;;;;;5074601;28;20172;-51
2022/03/12 00:55:27;;;;;;;3.85;2.63;;;6.40;13.60;;;;;;5074150;28;20663;-51
2022/03/12 00:57:54;;;;;;;4.22;2.45;;;6.40;13.60;;;;;;5074205;28;20532;-51
2022/03/12 01:00:21;;;;;;;4.45;2.42;;;6.40;13.40;;;;;;5074125;28;20169;-50
2022/03/12 01:02:47;;;;;;;3.97;2.47;;;6.30;13.50;;;;;;5074541;28;20634;-51
2022/03/12 01:05:16;;;;;;;10.52;3.05;;;6.30;13.50;;;;;;5074362;28;20502;-51
2022/03/12 01:07:43;;;;;;;5.03;2.38;;;6.30;13.70;;;;;;5074592;28;20176;-51
2022/03/12 01:10:09;;;;;;;10.27;2.63;;;6.30;13.80;;;;;;5072986;28;20172;-51
2022/03/12 01:12:35;;;;;;;4.90;1.90;;;6.30;13.60;;;;;;5074531;28;20157;-51
2022/03/12 01:15:01;;;;;;;2.70;1.80;;;6.30;13.70;;;;;;5073727;28;20469;-50
2022/03/12 01:17:27;;;;;;;4.22;2.92;;;6.40;13.40;;;;;;5072511;28;20494;-51
2022/03/12 01:19:52;;;;;;;6.20;2.30;;;6.30;13.60;;;;;;5073862;28;20211;-51
2022/03/12 01:22:20;;;;;;;3.30;1.97;;;6.40;13.60;;;;;;5074115;28;20172;-51
2022/03/12 01:24:49;;;;;;;2.60;1.30;;;6.30;13.40;;;;;;5074023;28;20168;-51
2022/03/12 01:27:16;;;;;;;3.38;2.40;;;6.30;13.60;;;;;;5074036;28;20687;-50
2022/03/12 01:29:45;;;;;;;3.35;2.38;;;6.40;13.70;;;;;;5074230;28;20176;-51
2022/03/12 01:32:10;;;;;;;5.18;2.55;;;6.30;13.60;;;;;;5072860;28;20174;-51
2022/03/12 01:34:36;;;;;;;3.17;2.00;;;6.30;13.60;;;;;;5073221;28;20664;-51
2022/03/12 01:37:04;;;;;;;2.00;1.70;;;6.20;13.60;;;;;;5073768;28;20695;-51
2022/03/12 01:39:29;;;;;;;3.03;1.63;;;6.20;13.80;;;;;;5072884;28;20451;-50
2022/03/12 01:41:55;;;;;;;2.50;1.20;;;6.20;13.60;;;;;;5074156;28;20191;-51
2022/03/12 01:44:21;;;;;;;2.80;1.50;;;6.20;13.60;;;;;;5073850;28;20418;-50
2022/03/12 01:46:49;;;;;;;3.35;1.88;;;6.20;13.70;;;;;;5074077;28;20755;-51
2022/03/12 01:49:18;;;;;;;2.95;2.22;;;6.20;13.70;;;;;;5073779;28;20180;-50
2022/03/12 01:51:46;;;;;;;3.88;3.10;;;6.20;13.60;;;;;;5073529;28;20169;-50
2022/03/12 01:54:13;;;;;;;3.17;1.83;;;6.30;13.80;;;;;;5073473;28;20173;-50
2022/03/12 01:56:40;;;;;;;2.65;1.67;;;6.30;13.80;;;;;;5073629;28;20230;-50
2022/03/12 01:59:06;;;;;;;2.97;2.22;;;6.20;13.70;;;;;;5073684;28;20176;-50
2022/03/12 02:01:32;;;;;;;4.43;1.95;;;6.20;13.60;;;;;;5073668;28;20226;-50
2022/03/12 02:04:04;;;;;;;1.92;1.25;;;6.10;13.60;;;;;;5073646;28;20531;-50
2022/03/12 02:06:29;;;;;;;2.80;1.95;;;6.10;13.70;;;;;;5073409;28;20277;-50
2022/03/12 02:08:59;;;;;;;4.30;2.77;;;6.70;14.00;;;;;;5073665;28;20248;-50
2022/03/12 02:11:29;;;;;;;5.28;2.78;;;6.00;13.50;;;;;;5074162;28;20413;-50
2022/03/12 02:14:06;;;;;;;4.60;2.05;;;6.10;13.50;;;;;;5077341;28;20588;-51
2022/03/12 02:16:33;;;;;;;4.28;1.80;;;6.10;13.60;;;;;;5077584;28;20189;-50
2022/03/12 02:18:59;;;;;;;2.85;2.10;;;6.10;13.60;;;;;;5077253;28;20210;-50
2022/03/12 02:21:57;;;;;;;4.03;2.27;;;6.10;13.40;;;;;;5077534;28;20168;-50
2022/03/12 02:24:26;;;;;;;4.65;2.72;;;6.10;13.50;;;;;;5077522;28;20582;-50
2022/03/12 02:26:54;;;;;;;2.72;2.15;;;6.10;13.50;;;;;;5077426;28;20599;-50
2022/03/12 02:29:22;;;;;;;2.28;1.63;;;6.00;13.50;;;;;;5077187;28;20248;-50
2022/03/12 02:32:09;;;;;;;2.35;1.92;;;6.00;13.30;;;;;;5078133;28;20497;-50
2022/03/12 02:34:49;;;;;;;2.17;1.88;;;6.00;13.50;;;;;;5077622;28;20161;-50
2022/03/12 02:37:30;;;;;;;3.80;2.20;;;6.00;13.30;;;;;;5076835;28;20548;-50
2022/03/12 02:39:58;;;;;;;12.25;3.35;;;6.00;13.30;;;;;;5077212;28;20223;-50
2022/03/12 02:42:24;;;;;;;1.98;1.35;;;6.00;13.30;;;;;;5076785;28;20187;-50
2022/03/12 02:44:51;;;;;;;3.92;2.25;;;6.00;13.40;;;;;;5076936;28;20176;-50
2022/03/12 02:47:22;;;;;;;6.70;2.35;;;6.00;13.50;;;;;;5077032;28;20171;-50
2022/03/12 02:49:57;;;;;;;1.90;1.70;;;6.00;13.40;;;;;;5077038;28;20192;-50
2022/03/12 02:52:26;;;;;;;4.07;2.15;;;6.00;13.30;;;;;;5076946;28;20614;-49
2022/03/12 02:54:52;;;;;;;2.30;1.80;;;6.00;13.50;;;;;;5076844;28;20501;-50
2022/03/12 02:57:30;;;;;;;2.97;1.80;;;6.00;13.50;;;;;;5076780;28;20275;-50
2022/03/12 03:00:04;;;;;;;2.50;1.80;;;5.90;13.30;;;;;;5077102;28;20597;-50
2022/03/12 03:02:38;;;;;;;3.13;2.38;;;5.90;13.00;;;;;;5076798;28;20199;-50
2022/03/12 03:05:06;;;;;;;3.25;2.45;;;5.90;13.00;;;;;;5076718;28;20149;-50
2022/03/12 03:07:35;;;;;;;2.13;1.75;;;5.90;13.20;;;;;;5076664;28;20169;-50
2022/03/12 03:10:02;;;;;;;2.83;1.58;;;5.90;13.20;;;;;;5076612;28;20175;-50
2022/03/12 03:12:28;;;;;;;2.65;1.80;;;6.00;12.90;;;;;;5075058;28;20185;-50
2022/03/12 03:14:54;;;;;;;4.37;1.73;;;5.90;12.90;;;;;;5076332;28;20287;-50
2022/03/12 03:17:19;;;;;;;2.73;1.80;;;5.90;12.90;;;;;;5076388;28;20443;-50
2022/03/12 03:19:46;;;;;;;5.40;2.77;;;5.90;12.90;;;;;;5074876;28;20647;-50
2022/03/12 03:22:12;;;;;;;3.00;2.08;;;5.90;12.90;;;;;;5075908;28;20165;-50
2022/03/12 03:24:37;;;;;;;2.55;1.45;;;5.90;12.80;;;;;;5076339;28;20175;-50
2022/03/12 03:27:04;;;;;;;4.20;2.43;;;5.90;12.40;;;;;;5076004;28;20160;-50
2022/03/12 03:29:31;;;;;;;2.15;1.20;;;5.90;12.70;;;;;;5076013;28;20203;-50
2022/03/12 03:32:01;;;;;;;3.00;1.55;;;5.90;12.70;;;;;;5076482;28;20524;-50
2022/03/12 03:34:29;;;;;;;5.93;2.25;;;5.90;12.50;;;;;;5076192;28;20168;-50
2022/03/12 03:36:55;;;;;;;3.55;1.75;;;5.90;12.40;;;;;;5074623;28;20201;-50
2022/03/12 03:39:21;;;;;;;1.90;1.40;;;6.00;12.50;;;;;;5076054;28;20313;-50
2022/03/12 03:41:47;;;;;;;2.30;1.80;;;6.00;12.80;;;;;;5076019;28;20509;-50
2022/03/12 03:44:13;;;;;;;4.30;2.10;;;5.90;12.60;;;;;;5075730;28;20192;-50
2022/03/12 03:46:39;;;;;;;2.20;1.80;;;5.90;12.30;;;;;;5075552;28;20260;-50
2022/03/12 03:49:06;;;;;;;5.05;2.08;;;5.90;12.20;;;;;;5075884;28;20196;-50
2022/03/12 03:51:42;;;;;;;1.42;0.70;;;5.90;12.30;;;;;;5075810;28;20175;-50
2022/03/12 03:54:09;;;;;;;3.35;1.90;;;5.90;12.10;;;;;;5075596;28;20164;-50
2022/03/12 03:56:37;;;;;;;1.65;1.55;;;5.90;11.80;;;;;;5075359;28;20197;-50
2022/03/12 03:59:03;;;;;;;2.45;2.25;;;5.90;11.90;;;;;;5075664;28;20172;-50
2022/03/12 04:01:29;;;;;;;2.35;1.45;;;5.90;11.70;;;;;;5075905;28;20169;-50
2022/03/12 04:03:55;;;;;;;3.30;2.20;;;5.90;11.60;;;;;;5075618;28;20160;-50
2022/03/12 04:06:23;;;;;;;2.92;1.58;;;5.90;11.30;;;;;;5075543;28;20176;-50
2022/03/12 04:08:49;;;;;;;2.30;1.58;;;6.00;11.50;;;;;;5075717;28;20176;-50
2022/03/12 04:11:17;;;;;;;3.70;1.80;;;6.00;11.70;;;;;;5075262;28;20157;-50
2022/03/12 04:13:43;;;;;;;1.40;0.90;;;6.00;11.50;;;;;;5075043;28;20216;-50
2022/03/12 04:16:10;;;;;;;5.07;2.15;;;6.00;11.50;;;;;;5074941;28;20253;-50
2022/03/12 04:18:37;;;;;;;2.85;1.08;;;5.90;11.30;;;;;;5075266;28;20179;-50
2022/03/12 04:21:04;;;;;;;2.47;2.03;;;5.90;11.20;;;;;;5075273;28;20203;-50
2022/03/12 04:23:30;;;;;;;1.83;1.23;;;5.90;11.50;;;;;;5075468;28;20192;-50
2022/03/12 04:25:58;;;;;;;2.97;1.45;;;6.00;11.70;;;;;;5075167;28;20222;-50
2022/03/12 04:28:27;;;;;;;2.75;1.85;;;6.00;11.50;;;;;;5075069;28;20524;-50
2022/03/12 04:30:54;;;;;;;2.08;1.88;;;5.90;11.30;;;;;;5075035;28;20167;-50
2022/03/12 04:33:19;;;;;;;2.55;1.60;;;5.90;11.20;;;;;;5074721;28;20594;-50
2022/03/12 04:35:47;;;;;;;2.60;1.93;;;5.80;11.30;;;;;;5073963;28;20279;-50
2022/03/12 04:38:13;;;;;;;3.15;1.70;;;5.80;11.40;;;;;;5074907;28;20160;-50
2022/03/12 04:40:41;;;;;;;2.70;1.30;;;5.80;11.20;;;;;;5074840;28;20168;-50
2022/03/12 04:43:09;;;;;;;3.42;1.38;;;5.70;10.90;;;;;;5074780;28;20172;-50
2022/03/12 04:45:36;;;;;;;3.72;1.90;;;5.70;11.20;;;;;;5074505;28;20251;-50
2022/03/12 04:48:02;;;;;;;4.95;1.13;;;5.70;11.10;;;;;;5074432;28;20172;-50
2022/03/12 04:50:28;;;;;;;5.70;1.60;;;5.70;11.50;;;;;;5074649;28;20176;-50
2022/03/12 04:52:57;;;;;;;2.53;1.20;;;5.70;11.20;;;;;;5074651;28;20587;-50
2022/03/12 04:55:25;;;;;;;3.15;2.47;;;5.70;11.20;;;;;;5074253;28;20802;-50
2022/03/12 04:57:52;;;;;;;5.55;1.40;;;5.70;11.50;;;;;;5074525;28;20247;-50
2022/03/12 05:00:26;;;;;;;3.67;2.58;;;5.60;11.30;;;;;;5074709;28;20160;-50
2022/03/12 05:03:12;;;;;;;2.55;1.73;;;5.60;11.40;;;;;;5074808;28;20255;-50
2022/03/12 05:05:40;;;;;;;2.75;1.52;;;5.60;11.60;;;;;;5074412;28;20504;-50
2022/03/12 05:08:07;;;;;;;2.30;1.70;;;5.60;11.40;;;;;;5074313;28;20176;-50
2022/03/12 05:10:33;;;;;;;2.60;1.65;;;5.50;11.20;;;;;;5074581;28;20173;-50
2022/03/12 05:13:00;;;;;;;2.10;1.52;;;5.50;11.30;;;;;;5074505;28;20175;-51
2022/03/12 05:15:31;;;;;;;6.65;1.45;;;5.40;11.20;;;;;;5074005;28;20165;-50
2022/03/12 05:17:58;;;;;;;2.95;1.77;;;5.40;11.10;;;;;;5074196;28;20165;-50
2022/03/12 05:20:25;;;;;;;3.00;1.67;;;6.20;11.40;;;;;;5074106;28;20165;-50
2022/03/12 05:22:52;;;;;;;3.70;1.90;;;5.40;10.80;;;;;;5072544;28;20275;-50
2022/03/12 05:25:21;;;;;;;4.63;2.55;;;6.60;11.60;;;;;;5074284;28;20168;-50
2022/03/12 05:27:50;;;;;;;2.33;1.65;;;5.40;11.10;;;;;;5074011;28;20226;-50
2022/03/12 05:30:16;;;;;;;1.88;1.23;;;5.50;11.20;;;;;;5074019;28;20168;-50
2022/03/12 05:32:42;;;;;;;2.10;1.45;;;5.40;11.00;;;;;;5073900;28;20213;-50
2022/03/12 05:35:08;;;;;;;3.53;1.97;;;5.30;10.80;;;;;;5072380;28;20172;-50
2022/03/12 05:37:36;;;;;;;2.85;1.60;;;5.40;11.00;;;;;;5074097;28;20279;-50
2022/03/12 05:40:04;;;;;;;2.45;1.35;;;5.50;11.20;;;;;;5073576;28;20175;-50
2022/03/12 05:42:30;;;;;;;3.00;1.45;;;5.40;11.00;;;;;;5073855;28;20230;-50
2022/03/12 05:44:56;;;;;;;3.55;1.77;;;5.50;11.20;;;;;;5073794;28;20264;-50
2022/03/12 05:47:23;;;;;;;1.77;1.40;;;5.50;11.00;;;;;;5072819;28;20171;-50
2022/03/12 05:49:49;;;;;;;2.47;1.20;;;5.50;11.30;;;;;;5073723;28;20172;-50
2022/03/12 05:52:16;;;;;;;3.20;1.77;;;5.50;11.10;;;;;;5073482;28;20260;-50
2022/03/12 05:54:43;;;;;;;2.15;1.58;;;5.50;11.20;;;;;;5073745;28;20204;-50
2022/03/12 05:57:09;;;;;;;4.15;1.75;;;5.50;11.10;;;;;;5073620;28;20193;-50
2022/03/12 05:59:35;;;;;;;3.00;1.73;;;5.80;11.60;;;;;;5073399;28;20177;-50
2022/03/12 06:02:00;;;;;;;2.90;1.20;;;5.70;11.40;;;;;;5073358;28;20200;-50
2022/03/12 06:04:26;;;;;;;3.50;2.20;;;5.60;10.90;;;;;;5073652;28;20441;-50
2022/03/12 06:06:55;;;;;;;4.60;2.30;;;5.60;11.40;;;;;;5073254;28;20165;-50
2022/03/12 06:09:22;;;;;;;2.60;2.15;;;5.70;11.40;;;;;;5073346;28;20179;-50
2022/03/12 06:11:51;;;;;;;1.70;1.25;;;5.80;11.50;;;;;;5073796;28;20169;-50
2022/03/12 06:14:16;;;;;;;3.25;2.05;;;6.20;11.30;;;;;;5073131;28;20303;-50
2022/03/12 06:16:46;;;;;;;8.60;1.90;;;5.80;11.30;;;;;;5073107;28;20333;-50
2022/03/12 06:19:11;;;;;;;3.33;2.08;;;5.80;11.00;;;;;;5073358;28;20411;-50
2022/03/12 06:21:37;;;;;;;4.40;1.80;;;5.90;11.30;;;;;;5073166;28;20237;-50
2022/03/12 06:24:03;;;;;;;2.60;1.30;;;6.10;11.10;;;;;;5073434;28;20192;-50
2022/03/12 06:26:35;;;;;;;6.00;1.80;;;6.10;11.30;;;;;;5071857;28;20169;-50
2022/03/12 06:29:02;;;;;;;2.35;1.60;;;6.30;10.90;;;;;;5073481;28;20392;-50
2022/03/12 06:31:28;;;;;;;4.60;3.15;;;6.30;11.00;;;;;;5073178;28;20567;-50
2022/03/12 06:33:54;;;;;;;2.67;1.67;;;6.40;11.00;;;;;;5071820;28;20169;-50
2022/03/12 06:36:22;;;;;;;2.90;1.58;;;6.40;10.80;;;;;;5072919;28;20185;-50
2022/03/12 06:38:48;;;;;;;3.67;1.25;;;6.50;10.70;;;;;;5073308;28;20177;-50
2022/03/12 06:41:14;;;;;;;2.90;1.48;;;6.60;10.90;;;;;;5073299;28;20169;-50
2022/03/12 06:43:42;;;;;;;6.10;2.40;;;6.60;11.00;;;;;;5073242;28;20167;-50
2022/03/12 06:46:13;;;;;;;2.75;1.80;;;6.70;10.80;;;;;;5073223;28;20171;-50
2022/03/12 06:48:39;;;;;;;2.60;1.67;;;6.60;10.30;;;;;;5073200;28;20161;-50
2022/03/12 06:51:06;;;;;;;2.65;1.75;;;6.60;10.40;;;;;;5072913;28;20169;-50
2022/03/12 06:53:32;;;;;;;5.88;2.00;;;6.60;10.70;;;;;;5073167;28;20173;-50
2022/03/12 06:55:58;;;;;;;4.18;2.53;;;6.60;10.30;;;;;;5073217;28;20283;-50
2022/03/12 06:58:25;;;;;;;2.50;1.02;;;6.60;10.50;;;;;;5075284;28;20211;-50
2022/03/12 07:00:51;;;;;;;2.38;1.30;;;6.60;10.40;;;;;;5076458;28;20255;-50
2022/03/12 07:03:17;;;;;;;3.17;1.70;;;6.70;10.30;;;;;;5076402;28;20211;-50
2022/03/12 07:05:43;;;;;;;4.07;2.30;;;6.80;10.40;;;;;;5076937;28;20162;-50
2022/03/12 07:08:09;;;;;;;3.25;2.22;;;6.90;10.40;;;;;;5075062;28;20326;-50
2022/03/12 07:10:35;;;;;;;3.63;1.87;;;7.00;10.50;;;;;;5076559;28;20652;-50
2022/03/12 07:13:00;;;;;;;3.53;1.60;;;7.10;10.20;;;;;;5076178;28;20247;-50
2022/03/12 07:15:26;;;;;;;4.37;2.33;;;7.10;10.20;;;;;;5076142;28;20384;-50
2022/03/12 07:17:52;;;;;;;2.90;1.53;;;7.30;10.30;;;;;;5076499;28;20253;-50
2022/03/12 07:20:18;;;;;;;4.13;1.65;;;7.40;10.60;;;;;;5076073;28;20454;-50
2022/03/12 07:22:45;;;;;;;4.33;2.37;;;7.50;10.70;;;;;;5076106;28;20277;-50
2022/03/12 07:25:12;;;;;;;5.20;2.60;;;7.50;9.90;;;;;;5076221;28;20419;-50
2022/03/12 07:27:38;;;;;;;1.50;0.90;;;7.50;10.10;;;;;;5076530;28;20164;-50
2022/03/12 07:30:05;;;;;;;3.20;1.77;;;7.60;9.90;;;;;;5075947;28;20190;-50
2022/03/12 07:32:31;;;;;;;1.67;1.20;;;7.60;10.10;;;;;;5075889;28;20173;-50
2022/03/12 07:34:57;;;;;;;3.95;2.40;;;7.70;10.40;;;;;;5074946;28;20200;-50
2022/03/12 07:37:23;;;;;;;2.03;1.30;;;7.90;10.30;;;;;;5074503;28;20239;-50
2022/03/12 07:39:49;;;;;;;3.10;1.40;;;8.00;9.90;;;;;;5075777;28;20173;-50
2022/03/12 07:42:15;;;;;;;3.25;2.88;;;8.10;9.90;;;;;;5075714;28;20417;-50
2022/03/12 07:44:41;;;;;;;4.63;2.10;;;8.10;9.60;;;;;;5076190;28;20189;-50
2022/03/12 07:47:07;;;;;;;2.08;1.75;;;8.20;9.70;;;;;;5075545;28;20408;-50
2022/03/12 07:49:34;;;;;;;2.30;2.10;;;8.20;9.40;;;;;;5076123;28;20177;-50
2022/03/12 07:52:00;;;;;;;4.00;1.80;;;8.20;9.60;;;;;;5075757;28;20171;-50
2022/03/12 07:54:26;;;;;;;5.40;2.05;;;8.30;9.80;;;;;;5076022;28;20173;-50
2022/03/12 07:56:51;;;;;;;4.38;2.65;;;8.40;9.40;;;;;;5075410;28;20586;-50
2022/03/12 07:59:18;;;;;;;3.10;1.70;;;8.40;9.40;;;;;;5075360;28;20176;-50
2022/03/12 08:01:44;;;;;;;4.80;1.95;;;8.50;10.00;;;;;;5075875;28;20252;-50
2022/03/12 08:04:10;;;;;;;3.20;1.93;;;8.70;9.50;;;;;;5075488;28;20256;-50
2022/03/12 08:06:36;;;;;;;10.80;3.50;;;8.70;10.20;;;;;;5075515;28;20412;-51
2022/03/12 08:09:02;;;;;;;2.95;2.30;;;8.80;9.20;;;;;;5074392;28;20408;-51
2022/03/12 08:11:28;;;;;;;4.80;2.97;;;8.90;9.00;;;;;;5075365;28;20177;-51
2022/03/12 08:13:59;;;;;;;4.60;2.33;;;9.00;9.70;;;;;;5075269;28;20227;-50
2022/03/12 08:16:25;;;;;;;4.65;2.55;;;9.10;9.20;;;;;;5075293;28;20521;-51
2022/03/12 08:18:51;;;;;;;4.70;2.60;;;9.20;8.90;;;;;;5075572;28;20612;-51
2022/03/12 08:21:16;;;;;;;5.20;1.97;;;9.40;9.00;;;;;;5075238;28;20650;-50
2022/03/12 08:23:42;;;;;;;3.40;2.23;;;9.50;8.90;;;;;;5075194;28;20159;-50
2022/03/12 08:26:08;;;;;;;2.47;1.92;;;9.60;9.20;;;;;;5075012;28;20197;-51
2022/03/12 08:28:34;;;;;;;4.13;1.97;;;9.70;9.10;;;;;;5075330;28;20172;-51
2022/03/12 08:31:02;;;;;;;4.13;2.75;;;9.80;8.50;;;;;;5074769;28;20176;-51
2022/03/12 08:33:28;;;;;;;4.70;2.55;;;9.80;8.40;;;;;;5074928;28;20169;-51
2022/03/12 08:35:56;;;;;;;2.45;1.92;;;9.90;8.60;;;;;;5073294;28;20199;-51
2022/03/12 08:38:22;;;;;;;3.13;2.70;;;9.80;8.40;;;;;;5074833;28;20197;-51
2022/03/12 08:40:48;;;;;;;3.00;2.05;;;9.90;8.60;;;;;;5074847;28;20161;-51
2022/03/12 08:43:14;;;;;;;5.32;2.75;;;10.00;8.30;;;;;;5074727;28;20178;-50
2022/03/12 08:45:40;;;;;;;6.47;2.40;;;10.00;8.70;;;;;;5074672;28;20250;-51
2022/03/12 08:48:05;;;;;;;3.30;2.33;;;10.20;8.30;;;;;;5074503;28;20898;-51
2022/03/12 08:50:32;;;;;;;3.00;2.30;;;10.30;8.60;;;;;;5074508;28;20210;-51
2022/03/12 08:52:58;;;;;;;4.88;2.83;;;10.50;8.60;;;;;;5072970;28;20176;-51
2022/03/12 08:55:25;;;;;;;2.97;1.75;;;10.70;8.60;;;;;;5074099;28;20199;-50
2022/03/12 08:57:52;;;;;;;4.28;2.25;;;11.00;8.20;;;;;;5074433;28;20169;-50
2022/03/12 09:00:20;;;;;;;2.85;2.55;;;10.80;7.40;;;;;;5073008;28;20186;-50
2022/03/12 09:02:47;;;;;;;3.33;1.60;;;10.70;7.40;;;;;;5072837;28;20182;-50
2022/03/12 09:05:14;;;;;;;3.08;2.47;;;10.70;7.50;;;;;;5074518;28;20199;-50
2022/03/12 09:07:42;;;;;;;3.40;2.53;;;10.80;7.60;;;;;;5074443;28;20161;-50
2022/03/12 09:10:13;;;;;;;3.33;2.67;;;10.80;8.20;;;;;;5074207;28;20540;-51
2022/03/12 09:12:42;;;;;;;5.15;2.40;;;10.90;7.80;;;;;;5074171;28;20167;-51
2022/03/12 09:15:09;;;;;;;4.22;2.13;;;10.90;7.40;;;;;;5073719;28;20579;-50
2022/03/12 09:17:35;;;;;;;2.40;2.10;;;11.00;7.50;;;;;;5074013;28;20205;-50
2022/03/12 09:20:03;;;;;;;2.20;1.90;;;11.20;7.30;;;;;;5073845;28;20739;-50
2022/03/12 09:22:29;;;;;;;6.07;2.17;;;11.30;7.40;;;;;;5074200;28;20797;-50
2022/03/12 09:24:54;;;;;;;9.53;2.23;;;11.40;7.40;;;;;;5074047;28;20165;-51
2022/03/12 09:27:20;;;;;;;2.57;2.37;;;11.60;7.00;;;;;;5073653;28;20227;-51
2022/03/12 09:29:46;;;;;;;6.33;2.60;;;11.80;7.20;;;;;;5073728;28;20176;-51
2022/03/12 09:32:12;;;;;;;2.72;2.50;;;12.00;7.20;;;;;;5073916;28;20211;-50
2022/03/12 09:34:38;;;;;;;4.37;2.20;;;12.00;6.70;;;;;;5073888;28;20679;-51
2022/03/12 09:37:05;;;;;;;3.00;1.63;;;12.10;6.90;;;;;;5074113;28;20797;-51
2022/03/12 09:39:31;;;;;;;3.78;2.60;;;12.20;6.60;;;;;;5073548;28;20460;-51
2022/03/12 09:41:58;;;;;;;5.82;3.80;;;12.30;7.00;;;;;;5074087;28;20225;-51
2022/03/12 09:44:23;;;;;;;2.10;1.90;;;12.40;6.70;;;;;;5073793;28;20551;-51
2022/03/12 09:46:49;;;;;;;10.93;3.07;;;12.40;6.70;;;;;;5073450;28;20164;-51
2022/03/12 09:49:15;;;;;;;3.10;2.05;;;12.40;6.80;;;;;;5073524;28;20206;-51
2022/03/12 09:51:43;;;;;;;4.30;2.30;;;12.60;6.70;;;;;;5073960;28;20168;-51
2022/03/12 09:54:09;;;;;;;3.80;2.22;;;12.80;6.20;;;;;;5073641;28;20414;-51
2022/03/12 09:56:34;;;;;;;4.23;2.10;;;12.90;6.90;;;;;;5072096;28;20557;-51
2022/03/12 09:59:00;;;;;;;4.20;2.20;;;13.20;6.70;;;;;;5073673;28;20479;-51
2022/03/12 10:01:26;;;;;;;3.00;2.43;;;13.30;6.10;;;;;;5073404;28;20167;-51
2022/03/12 10:03:52;;;;;;;3.33;3.03;;;13.40;5.70;;;;;;5073865;28;20266;-51
2022/03/12 10:06:18;;;;;;;7.10;2.47;;;13.50;6.60;;;;;;5073310;28;20633;-51
2022/03/12 10:08:44;;;;;;;4.77;2.90;;;13.60;5.60;;;;;;5073474;28;20160;-51
2022/03/12 10:11:10;;;;;;;3.25;1.95;;;13.70;6.20;;;;;;5073296;28;20176;-51
2022/03/12 10:13:36;;;;;;;3.20;2.17;;;13.80;6.40;;;;;;5073112;28;20232;-51
2022/03/12 10:16:03;;;;;;;4.80;2.47;;;13.90;6.70;;;;;;5073388;28;20802;-51
2022/03/12 10:18:28;;;;;;;4.20;2.88;;;14.10;5.40;;;;;;5073394;28;20173;-51
2022/03/12 10:20:57;;;;;;;4.30;2.43;;;14.20;6.00;;;;;;5073146;28;20206;-51
2022/03/12 10:23:23;;;;;;;5.22;2.33;;;14.20;5.30;;;;;;5073019;28;20422;-51
2022/03/12 10:25:49;;;;;;;5.88;3.30;;;14.30;6.20;;;;;;5073313;28;20168;-51
2022/03/12 10:28:15;;;;;;;3.55;2.67;;;14.40;6.40;;;;;;5071803;28;20172;-51
2022/03/12 10:30:41;;;;;;;4.37;2.67;;;14.50;5.20;;;;;;5072963;28;20207;-51
2022/03/12 10:33:07;;;;;;;2.77;1.83;;;14.50;5.60;;;;;;5075203;28;20219;-51
2022/03/12 10:35:37;;;;;;;3.70;2.25;;;14.50;5.50;;;;;;5077056;28;20406;-51
2022/03/12 10:38:10;;;;;;;2.33;1.88;;;14.40;5.00;;;;;;5076732;28;20206;-51
2022/03/12 10:40:37;;;;;;;2.03;1.55;;;14.40;5.20;;;;;;5077434;28;20588;-51
2022/03/12 10:43:12;;;;;;;5.20;2.47;;;14.50;5.50;;;;;;5077110;28;20259;-51
2022/03/12 10:45:52;;;;;;;4.60;2.15;;;14.70;5.90;;;;;;5077016;28;20156;-51
2022/03/12 10:48:20;;;;;;;5.55;2.05;;;14.90;5.30;;;;;;5076563;28;20156;-51
2022/03/12 10:50:50;;;;;;;3.33;2.85;;;15.00;5.20;;;;;;5076611;28;20218;-51
2022/03/12 10:53:17;;;;;;;2.85;2.40;;;15.10;5.70;;;;;;5076856;28;20606;-51
2022/03/12 10:55:47;;;;;;;3.10;1.98;;;15.30;5.70;;;;;;5076965;28;20161;-51
2022/03/12 10:58:24;;;;;;;3.95;2.55;;;15.30;4.90;;;;;;5076488;28;20169;-51
2022/03/12 11:00:53;;;;;;;4.10;3.13;;;15.30;5.10;;;;;;5076930;28;20152;-51
2022/03/12 11:03:28;;;;;;;4.05;2.55;;;15.30;4.40;;;;;;5076581;28;20239;-50
2022/03/12 11:05:56;;;;;;;3.45;2.70;;;15.30;5.70;;;;;;5076684;28;20169;-51
2022/03/12 11:08:25;;;;;;;5.65;2.50;;;15.30;5.50;;;;;;5076433;28;20180;-50
2022/03/12 11:11:00;;;;;;;3.30;2.72;;;15.40;6.10;;;;;;5076272;28;20632;-51
2022/03/12 11:13:48;;;;;;;5.70;3.55;;;15.60;5.80;;;;;;5076047;28;20306;-51
2022/03/12 11:16:33;;;;;;;6.50;2.15;;;15.70;5.10;;;;;;5076349;28;20215;-51
2022/03/12 11:19:10;;;;;;;5.88;2.70;;;15.70;5.60;;;;;;5076417;28;20159;-51
2022/03/12 11:21:39;;;;;;;3.83;2.70;;;15.80;6.20;;;;;;5076028;28;20673;-51
2022/03/12 11:24:08;;;;;;;3.65;2.78;;;15.90;5.50;;;;;;5076304;28;20185;-51
2022/03/12 11:26:46;;;;;;;4.05;3.30;;;16.00;5.80;;;;;;5076068;28;20168;-51
2022/03/12 11:29:13;;;;;;;5.15;2.70;;;16.10;5.50;;;;;;5076240;28;20164;-51
2022/03/12 11:32:11;;;;;;;5.45;2.95;;;16.20;5.60;;;;;;5076198;28;20645;-51
2022/03/12 11:34:39;;;;;;;3.45;2.50;;;16.30;5.30;;;;;;5071227;28;20189;-51
2022/03/12 11:37:12;;;;;;;7.50;4.00;;;16.40;4.80;;;;;;5076247;28;20201;-51
2022/03/12 11:39:41;;;;;;;5.93;2.80;;;16.30;5.30;;;;;;5076052;28;20250;-51
2022/03/12 11:42:15;;;;;;;6.07;2.83;;;16.30;5.90;;;;;;5076006;28;20184;-50
2022/03/12 11:44:51;;;;;;;3.55;2.85;;;16.40;5.00;;;;;;5075667;28;20202;-50
2022/03/12 11:47:19;;;;;;;4.13;3.22;;;16.40;5.10;;;;;;5075866;28;20260;-50
2022/03/12 11:49:46;;;;;;;3.05;2.38;;;16.60;5.20;;;;;;5075679;28;20226;-50
2022/03/12 11:52:13;;;;;;;3.65;2.58;;;16.60;4.70;;;;;;5075485;28;20656;-50
2022/03/12 11:54:43;;;;;;;3.15;2.45;;;16.50;4.80;;;;;;5076024;28;20167;-50
2022/03/12 11:57:11;;;;;;;4.85;2.63;;;16.50;5.50;;;;;;5075594;28;20278;-50
2022/03/12 11:59:38;;;;;;;3.83;3.25;;;16.60;6.00;;;;;;5075627;28;20181;-50
2022/03/12 12:02:24;;;;;;;4.47;2.90;;;16.50;5.40;;;;;;5075402;28;20263;-50
2022/03/12 12:04:52;;;;;;;3.22;2.90;;;16.50;4.90;;;;;;5075080;28;20196;-50
2022/03/12 12:07:19;;;;;;;7.30;2.97;;;16.40;5.10;;;;;;5075875;28;20643;-50
2022/03/12 12:09:45;;;;;;;3.90;2.13;;;16.40;5.70;;;;;;5075401;28;20238;-50
2022/03/12 12:12:13;;;;;;;4.60;2.42;;;16.50;4.60;;;;;;5075149;28;20255;-50
2022/03/12 12:14:43;;;;;;;4.57;2.58;;;16.50;4.90;;;;;;5075050;28;20221;-50
2022/03/12 12:17:12;;;;;;;7.00;3.15;;;16.70;5.70;;;;;;5075074;28;20220;-50
2022/03/12 12:19:38;;;;;;;3.35;2.35;;;16.70;5.30;;;;;;5075262;28;20165;-50
2022/03/12 12:22:07;;;;;;;13.18;3.67;;;16.60;5.30;;;;;;5075212;28;20168;-50
2022/03/12 12:24:44;;;;;;;5.55;2.70;;;16.60;4.80;;;;;;5075190;28;20184;-50
2022/03/12 12:27:14;;;;;;;5.80;3.08;;;16.50;5.10;;;;;;5075115;28;20157;-50
2022/03/12 12:29:52;;;;;;;4.18;2.83;;;16.60;5.80;;;;;;5074762;28;20157;-50
2022/03/12 12:32:21;;;;;;;5.05;2.78;;;16.60;5.30;;;;;;5075087;28;20206;-50
2022/03/12 12:35:04;;;;;;;3.63;2.65;;;16.70;5.00;;;;;;5074667;28;20169;-50
2022/03/12 12:37:42;;;;;;;5.00;3.20;;;16.50;5.30;;;;;;5075122;28;20203;-50
2022/03/12 12:40:20;;;;;;;3.17;2.75;;;16.50;5.40;;;;;;5074399;28;20522;-50
2022/03/12 12:42:49;;;;;;;2.67;2.20;;;16.60;5.40;;;;;;5074812;28;20235;-50
2022/03/12 12:45:20;;;;;;;4.03;2.60;;;16.70;6.20;;;;;;5074697;28;20177;-50
2022/03/12 12:47:46;;;;;;;4.15;3.42;;;16.70;5.10;;;;;;5074785;28;20161;-51
2022/03/12 12:50:24;;;;;;;3.63;2.53;;;16.80;5.70;;;;;;5074396;28;20165;-50
2022/03/12 12:53:11;;;;;;;3.90;2.58;;;17.00;5.30;;;;;;5074727;28;20180;-50
2022/03/12 12:55:39;;;;;;;4.75;3.15;;;17.00;5.30;;;;;;5073628;28;20720;-50
2022/03/12 12:58:05;;;;;;;4.75;3.28;;;17.20;5.40;;;;;;5074747;28;20173;-50
2022/03/12 13:00:33;;;;;;;5.40;3.80;;;17.20;5.60;;;;;;5074441;28;20171;-50
2022/03/12 13:03:01;;;;;;;5.22;2.92;;;17.40;4.60;;;;;;5074723;28;20699;-50